»·PEaware :: JBU2324 KRDD-KPDX

JBU2324 :: KRDD-KPDX

FLIGHT INFORMATION

Flight Status: Arrived
Operator:
JetBlue Airways
More flights by this operator :: More flights under this callsign
Pilot: Craig H. (6968)
Aircraft: AIRBUS A321
(A321)
More flights by this aircraft type
Origin: KRDD Redding Mun
United States
Destination: KPDX Portland Intl
United States
More flights between these airports :: More routes between these airports
Route: +OED MOXEE TMBRS2
File this flight plan on PilotEdge
Remarks:
Altitude:
(Current/Filed)
30,000ft
Speed:
(Current/Filed)
419kts
Departed: 08-Mar-20 09:05 AM
Arrived: 08-Mar-20 10:03 AM
Distance/Time
Traveled:
305nm/0:57
Distance/Time
To Go:
Arrived

Flight Plot

Page will automatically refresh every two minutes.

Flight plan parsing failed; only flown route is shown


Map Options




Map Legend


Flown Route
Filed Route
Departure Airport
Arrival Airport
Navaid (VOR, NDB)
Fix

Horizontal Profiles

Position Reports

Time Latitude Longitude Heading Altitude Ground
Speed
08-Mar-20 08:16 40.505788 -122.298947 315 499ft 0kts
08-Mar-20 08:17 40.505788 -122.298947 315 499ft 0kts
08-Mar-20 08:18 40.505788 -122.298947 315 499ft 0kts
08-Mar-20 08:19 40.505788 -122.298947 315 499ft 0kts
08-Mar-20 08:20 40.505788 -122.298947 315 499ft 0kts
08-Mar-20 08:21 40.505788 -122.298947 315 499ft 0kts
08-Mar-20 08:22 40.505788 -122.298947 315 499ft 0kts
08-Mar-20 08:23 40.505788 -122.298947 315 499ft 0kts
08-Mar-20 08:24 40.505788 -122.298947 315 499ft 0kts
08-Mar-20 08:25 40.505788 -122.298947 315 499ft 0kts
08-Mar-20 08:26 40.505788 -122.298947 315 499ft 0kts
08-Mar-20 08:27 40.505788 -122.298947 315 499ft 0kts
08-Mar-20 08:28 40.505788 -122.298947 315 499ft 0kts
08-Mar-20 08:29 40.505788 -122.298947 315 499ft 0kts
08-Mar-20 08:30 40.505788 -122.298947 315 499ft 0kts
08-Mar-20 08:31 40.505788 -122.298947 315 499ft 0kts
08-Mar-20 08:32 40.505788 -122.298947 315 499ft 0kts
08-Mar-20 08:33 40.505788 -122.298947 315 499ft 0kts
08-Mar-20 08:34 40.505788 -122.298947 315 499ft 0kts
08-Mar-20 08:35 40.505788 -122.298947 315 499ft 0kts
08-Mar-20 08:36 40.505788 -122.298947 315 499ft 0kts
08-Mar-20 08:37 40.505788 -122.298947 315 499ft 0kts
08-Mar-20 08:38 40.505788 -122.298947 315 499ft 0kts
08-Mar-20 08:39 40.505788 -122.298947 315 499ft 0kts
08-Mar-20 08:40 40.505788 -122.298947 315 499ft 0kts
08-Mar-20 08:41 40.505788 -122.298947 315 499ft 0kts
08-Mar-20 08:42 40.505788 -122.298947 315 499ft 0kts
08-Mar-20 08:43 40.505788 -122.298947 315 499ft 0kts
08-Mar-20 08:44 40.505788 -122.298947 315 499ft 0kts
08-Mar-20 08:45 40.505788 -122.298947 315 499ft 0kts
08-Mar-20 08:46 40.505788 -122.298947 315 499ft 0kts
08-Mar-20 08:47 40.505788 -122.298947 315 499ft 0kts
08-Mar-20 08:48 40.505788 -122.298947 315 499ft 0kts
08-Mar-20 08:49 40.505788 -122.298947 315 499ft 0kts
08-Mar-20 08:50 40.505788 -122.298947 315 499ft 0kts
08-Mar-20 08:51 40.505759 -122.298878 311 499ft 2kts
08-Mar-20 08:52 40.505396 -122.298334 327 498ft 0kts
08-Mar-20 08:53 40.505356 -122.298316 353 498ft 0kts
08-Mar-20 08:54 40.505356 -122.298316 353 498ft 0kts
08-Mar-20 08:55 40.505356 -122.298316 353 498ft 0kts
08-Mar-20 08:56 40.505356 -122.298316 353 498ft 0kts
08-Mar-20 08:57 40.505356 -122.298316 353 498ft 0kts
08-Mar-20 08:58 40.505367 -122.298318 353 498ft 1kts
08-Mar-20 08:59 40.507067 -122.298591 357 499ft 7kts
08-Mar-20 09:00 40.509317 -122.296328 6 501ft 16kts
08-Mar-20 09:01 40.514110 -122.296295 359 504ft 15kts
08-Mar-20 09:02 40.516785 -122.296277 359 507ft 10kts
08-Mar-20 09:03 40.520052 -122.296189 26 508ft 7kts
08-Mar-20 09:04 40.518338 -122.294857 180 507ft 54kts
08-Mar-20 09:05 40.478468 -122.300394 221 2059ft 173kts
08-Mar-20 09:06 40.503716 -122.339399 350 3362ft 219kts
08-Mar-20 09:07 40.572005 -122.357983 350 5595ft 267kts
08-Mar-20 09:08 40.646977 -122.378969 350 8334ft 287kts
08-Mar-20 09:09 40.727753 -122.401760 348 10570ft 319kts
08-Mar-20 09:10 40.824448 -122.429204 347 11557ft 391kts
08-Mar-20 09:11 40.936705 -122.461198 347 13480ft 425kts
08-Mar-20 09:12 41.051424 -122.493957 346 16440ft 422kts
08-Mar-20 09:13 41.168042 -122.527436 345 18093ft 447kts
08-Mar-20 09:14 41.291360 -122.562963 345 19963ft 460kts
08-Mar-20 09:15 41.415394 -122.598804 344 22247ft 458kts
08-Mar-20 09:16 41.541415 -122.635515 344 23779ft 470kts
08-Mar-20 09:17 41.669809 -122.673321 343 25132ft 480kts
08-Mar-20 09:18 41.801449 -122.712131 343 26328ft 490kts
08-Mar-20 09:19 41.934636 -122.751308 343 27773ft 490kts
08-Mar-20 09:20 42.066144 -122.790148 342 29426ft 481kts
08-Mar-20 09:21 42.197020 -122.828905 342 30030ft 474kts
08-Mar-20 09:22 42.324749 -122.866987 342 30051ft 469kts
08-Mar-20 09:23 42.452632 -122.903136 347 30054ft 474kts
08-Mar-20 09:24 42.585188 -122.904670 359 30051ft 482kts
08-Mar-20 09:25 42.718712 -122.891353 359 30049ft 481kts
08-Mar-20 09:26 42.851966 -122.878724 359 30052ft 481kts
08-Mar-20 09:27 42.985223 -122.866113 358 30059ft 481kts
08-Mar-20 09:28 43.118716 -122.853493 358 30066ft 481kts
08-Mar-20 09:29 43.252301 -122.840807 358 30080ft 481kts
08-Mar-20 09:30 43.385563 -122.828071 358 30081ft 480kts
08-Mar-20 09:31 43.518707 -122.815300 359 29440ft 482kts
08-Mar-20 09:33 43.652588 -122.802424 359 28440ft 483kts
08-Mar-20 09:34 43.786145 -122.789457 359 27443ft 483kts
08-Mar-20 09:35 43.919973 -122.776449 359 26404ft 484kts
08-Mar-20 09:36 44.048847 -122.763670 359 24694ft 432kts
08-Mar-20 09:37 44.165609 -122.752342 359 23914ft 421kts
08-Mar-20 09:38 44.279833 -122.741143 0 21798ft 403kts
08-Mar-20 09:39 44.389825 -122.730303 0 19856ft 393kts
08-Mar-20 09:40 44.497319 -122.719655 0 17982ft 382kts
08-Mar-20 09:41 44.600249 -122.709424 1 16227ft 365kts
08-Mar-20 09:42 44.699442 -122.699446 1 14677ft 344kts
08-Mar-20 09:43 44.790140 -122.690277 1 13267ft 318kts
08-Mar-20 09:44 44.877659 -122.681493 2 11888ft 315kts
08-Mar-20 09:45 44.963748 -122.670480 17 10937ft 319kts
08-Mar-20 09:46 45.048408 -122.651938 358 9955ft 303kts
08-Mar-20 09:47 45.128511 -122.648754 0 8946ft 270kts
08-Mar-20 09:48 45.203009 -122.645350 0 7946ft 266kts
08-Mar-20 09:49 45.275074 -122.657211 338 6969ft 260kts
08-Mar-20 09:50 45.342796 -122.694693 338 6957ft 262kts
08-Mar-20 09:50 45.399149 -122.725591 338 6313ft 260kts
08-Mar-20 09:52 45.477465 -122.768574 337 5226ft 257kts
08-Mar-20 09:53 45.539005 -122.802529 337 4956ft 212kts
08-Mar-20 09:54 45.587407 -122.844642 302 4142ft 208kts
08-Mar-20 09:54 45.612092 -122.902194 301 2973ft 199kts
08-Mar-20 09:55 45.654956 -122.935637 23 2975ft 206kts
08-Mar-20 09:57 45.697319 -122.873243 97 2974ft 212kts
08-Mar-20 09:57 45.677671 -122.808665 116 2970ft 211kts
08-Mar-20 09:58 45.654688 -122.748664 117 2416ft 150kts
08-Mar-20 10:00 45.631021 -122.688564 118 1501ft 147kts
08-Mar-20 10:00 45.614314 -122.646167 116 869ft 145kts
08-Mar-20 10:01 45.595053 -122.596325 116 52ft 141kts
08-Mar-20 10:02 45.584785 -122.569902 118 31ft 25kts
08-Mar-20 10:03 45.584207 -122.571650 298 31ft 13kts
08-Mar-20 10:04 45.587063 -122.578975 298 31ft 24kts
08-Mar-20 10:05 45.589482 -122.587244 270 31ft 19kts
08-Mar-20 10:06 45.591124 -122.592263 238 31ft 10kts
08-Mar-20 10:07 45.590796 -122.593076 240 31ft 0kts
08-Mar-20 10:08 45.590796 -122.593076 240 31ft 0kts
08-Mar-20 10:09 45.590796 -122.593076 240 31ft 0kts
08-Mar-20 10:10 45.590796 -122.593076 240 31ft 0kts
08-Mar-20 10:11 45.590796 -122.593076 240 31ft 0kts

Navigation Log

Ident Type
Flight plan parsing failed, navigation log unavailable